sensor_id;sensor_type;location;lat;lon;timestamp;P1;durP1;ratioP1;P2;durP2;ratioP2
29838;SDS011;18669;53.356;-1.464;2023-02-03T00:02:09;8.43;;;1.50;;
29838;SDS011;18669;53.356;-1.464;2023-02-03T00:04:35;5.65;;;1.58;;
29838;SDS011;18669;53.356;-1.464;2023-02-03T00:09:27;3.70;;;1.50;;
29838;SDS011;18669;53.356;-1.464;2023-02-03T00:14:19;9.65;;;1.50;;
29838;SDS011;18669;53.356;-1.464;2023-02-03T00:16:45;5.45;;;1.77;;
29838;SDS011;18669;53.356;-1.464;2023-02-03T00:21:37;6.57;;;1.95;;
29838;SDS011;18669;53.356;-1.464;2023-02-03T00:24:03;5.07;;;1.90;;
29838;SDS011;18669;53.356;-1.464;2023-02-03T00:26:29;5.82;;;1.95;;
29838;SDS011;18669;53.356;-1.464;2023-02-03T00:31:23;7.38;;;1.80;;
29838;SDS011;18669;53.356;-1.464;2023-02-03T00:33:53;9.55;;;2.40;;
29838;SDS011;18669;53.356;-1.464;2023-02-03T00:36:20;10.02;;;1.58;;
29838;SDS011;18669;53.356;-1.464;2023-02-03T00:38:47;4.03;;;1.60;;
29838;SDS011;18669;53.356;-1.464;2023-02-03T00:41:15;7.53;;;1.85;;
29838;SDS011;18669;53.356;-1.464;2023-02-03T00:43:41;4.13;;;1.75;;
29838;SDS011;18669;53.356;-1.464;2023-02-03T00:46:07;3.90;;;1.63;;
29838;SDS011;18669;53.356;-1.464;2023-02-03T00:50:59;5.78;;;2.25;;
29838;SDS011;18669;53.356;-1.464;2023-02-03T00:55:51;4.45;;;1.88;;
29838;SDS011;18669;53.356;-1.464;2023-02-03T00:58:17;11.02;;;2.35;;
29838;SDS011;18669;53.356;-1.464;2023-02-03T01:03:09;6.93;;;2.53;;
29838;SDS011;18669;53.356;-1.464;2023-02-03T01:08:01;6.25;;;2.60;;
29838;SDS011;18669;53.356;-1.464;2023-02-03T01:10:28;5.50;;;2.38;;
29838;SDS011;18669;53.356;-1.464;2023-02-03T01:12:54;12.00;;;2.50;;
29838;SDS011;18669;53.356;-1.464;2023-02-03T01:15:21;7.70;;;2.38;;
29838;SDS011;18669;53.356;-1.464;2023-02-03T01:20:13;5.20;;;2.13;;
29838;SDS011;18669;53.356;-1.464;2023-02-03T01:22:41;8.63;;;2.13;;
29838;SDS011;18669;53.356;-1.464;2023-02-03T01:25:07;4.57;;;1.80;;
29838;SDS011;18669;53.356;-1.464;2023-02-03T01:27:34;5.45;;;2.10;;
29838;SDS011;18669;53.356;-1.464;2023-02-03T01:32:26;4.95;;;1.98;;
29838;SDS011;18669;53.356;-1.464;2023-02-03T01:34:52;5.38;;;2.40;;
29838;SDS011;18669;53.356;-1.464;2023-02-03T01:37:18;4.45;;;2.15;;
29838;SDS011;18669;53.356;-1.464;2023-02-03T01:42:13;4.53;;;1.83;;
29838;SDS011;18669;53.356;-1.464;2023-02-03T01:47:30;4.80;;;1.95;;
29838;SDS011;18669;53.356;-1.464;2023-02-03T01:50:08;4.63;;;1.80;;
29838;SDS011;18669;53.356;-1.464;2023-02-03T01:52:44;6.43;;;2.13;;
29838;SDS011;18669;53.356;-1.464;2023-02-03T01:55:15;6.18;;;2.47;;
29838;SDS011;18669;53.356;-1.464;2023-02-03T01:57:46;5.35;;;2.80;;
29838;SDS011;18669;53.356;-1.464;2023-02-03T02:00:17;8.23;;;2.40;;
29838;SDS011;18669;53.356;-1.464;2023-02-03T02:02:43;5.28;;;2.63;;
29838;SDS011;18669;53.356;-1.464;2023-02-03T02:08:12;3.35;;;2.50;;
29838;SDS011;18669;53.356;-1.464;2023-02-03T02:10:40;4.40;;;2.70;;
29838;SDS011;18669;53.356;-1.464;2023-02-03T02:15:40;5.38;;;3.10;;
29838;SDS011;18669;53.356;-1.464;2023-02-03T02:20:47;3.70;;;3.40;;
29838;SDS011;18669;53.356;-1.464;2023-02-03T02:40:24;6.75;;;4.82;;
29838;SDS011;18669;53.356;-1.464;2023-02-03T02:45:56;9.75;;;5.75;;
29838;SDS011;18669;53.356;-1.464;2023-02-03T02:48:29;9.63;;;6.18;;
29838;SDS011;18669;53.356;-1.464;2023-02-03T02:51:01;10.55;;;6.38;;
29838;SDS011;18669;53.356;-1.464;2023-02-03T02:53:31;9.23;;;6.18;;
29838;SDS011;18669;53.356;-1.464;2023-02-03T02:56:02;8.82;;;5.72;;
29838;SDS011;18669;53.356;-1.464;2023-02-03T02:58:33;13.15;;;5.22;;
29838;SDS011;18669;53.356;-1.464;2023-02-03T03:01:01;10.75;;;5.50;;
29838;SDS011;18669;53.356;-1.464;2023-02-03T03:03:28;7.38;;;4.95;;
29838;SDS011;18669;53.356;-1.464;2023-02-03T03:08:22;7.75;;;4.68;;
29838;SDS011;18669;53.356;-1.464;2023-02-03T03:10:58;10.10;;;4.47;;
29838;SDS011;18669;53.356;-1.464;2023-02-03T03:13:26;8.25;;;3.75;;
29838;SDS011;18669;53.356;-1.464;2023-02-03T03:15:57;9.50;;;3.50;;
29838;SDS011;18669;53.356;-1.464;2023-02-03T03:18:27;6.20;;;4.10;;
29838;SDS011;18669;53.356;-1.464;2023-02-03T03:20:58;6.22;;;3.35;;
29838;SDS011;18669;53.356;-1.464;2023-02-03T03:23:32;6.47;;;3.13;;
29838;SDS011;18669;53.356;-1.464;2023-02-03T03:26:08;7.82;;;2.60;;
29838;SDS011;18669;53.356;-1.464;2023-02-03T03:28:48;8.93;;;2.42;;
29838;SDS011;18669;53.356;-1.464;2023-02-03T03:31:17;4.45;;;2.38;;
29838;SDS011;18669;53.356;-1.464;2023-02-03T03:33:44;8.40;;;2.53;;
29838;SDS011;18669;53.356;-1.464;2023-02-03T03:40:07;6.07;;;2.70;;
29838;SDS011;18669;53.356;-1.464;2023-02-03T03:45:24;7.80;;;2.72;;
29838;SDS011;18669;53.356;-1.464;2023-02-03T03:48:10;5.25;;;2.40;;
29838;SDS011;18669;53.356;-1.464;2023-02-03T03:50:42;5.20;;;2.45;;
29838;SDS011;18669;53.356;-1.464;2023-02-03T03:53:12;5.90;;;2.78;;
29838;SDS011;18669;53.356;-1.464;2023-02-03T03:55:42;6.35;;;2.75;;
29838;SDS011;18669;53.356;-1.464;2023-02-03T03:58:13;7.20;;;3.10;;
29838;SDS011;18669;53.356;-1.464;2023-02-03T04:00:45;8.32;;;2.63;;
29838;SDS011;18669;53.356;-1.464;2023-02-03T04:03:13;5.97;;;3.08;;
29838;SDS011;18669;53.356;-1.464;2023-02-03T04:05:42;7.15;;;2.70;;
29838;SDS011;18669;53.356;-1.464;2023-02-03T04:10:35;6.07;;;2.65;;
29838;SDS011;18669;53.356;-1.464;2023-02-03T04:13:03;5.70;;;2.60;;
29838;SDS011;18669;53.356;-1.464;2023-02-03T04:15:30;5.53;;;3.00;;
29838;SDS011;18669;53.356;-1.464;2023-02-03T04:17:56;9.85;;;3.22;;
29838;SDS011;18669;53.356;-1.464;2023-02-03T04:20:23;7.68;;;3.58;;
29838;SDS011;18669;53.356;-1.464;2023-02-03T04:22:49;5.95;;;2.90;;
29838;SDS011;18669;53.356;-1.464;2023-02-03T04:27:41;7.07;;;4.07;;
29838;SDS011;18669;53.356;-1.464;2023-02-03T04:30:07;4.38;;;3.72;;
29838;SDS011;18669;53.356;-1.464;2023-02-03T04:32:34;4.45;;;3.58;;
29838;SDS011;18669;53.356;-1.464;2023-02-03T04:37:26;5.60;;;4.20;;
29838;SDS011;18669;53.356;-1.464;2023-02-03T04:42:20;6.70;;;4.93;;
29838;SDS011;18669;53.356;-1.464;2023-02-03T04:44:46;5.32;;;4.35;;
29838;SDS011;18669;53.356;-1.464;2023-02-03T04:49:38;5.85;;;4.60;;
29838;SDS011;18669;53.356;-1.464;2023-02-03T04:52:04;6.38;;;4.97;;
29838;SDS011;18669;53.356;-1.464;2023-02-03T04:54:31;5.70;;;5.13;;
29838;SDS011;18669;53.356;-1.464;2023-02-03T04:56:57;6.32;;;4.65;;
29838;SDS011;18669;53.356;-1.464;2023-02-03T05:01:49;5.72;;;4.75;;
29838;SDS011;18669;53.356;-1.464;2023-02-03T05:06:41;5.97;;;5.30;;
29838;SDS011;18669;53.356;-1.464;2023-02-03T05:11:32;6.07;;;4.60;;
29838;SDS011;18669;53.356;-1.464;2023-02-03T05:16:24;6.60;;;5.53;;
29838;SDS011;18669;53.356;-1.464;2023-02-03T05:21:17;6.30;;;5.57;;
29838;SDS011;18669;53.356;-1.464;2023-02-03T05:26:09;6.05;;;5.45;;
29838;SDS011;18669;53.356;-1.464;2023-02-03T05:28:35;7.53;;;4.32;;
29838;SDS011;18669;53.356;-1.464;2023-02-03T05:33:27;5.43;;;3.97;;
29838;SDS011;18669;53.356;-1.464;2023-02-03T05:35:54;5.80;;;4.57;;
29838;SDS011;18669;53.356;-1.464;2023-02-03T05:38:20;5.65;;;4.70;;
29838;SDS011;18669;53.356;-1.464;2023-02-03T05:40:47;7.07;;;4.85;;
29838;SDS011;18669;53.356;-1.464;2023-02-03T05:43:33;6.05;;;5.45;;
29838;SDS011;18669;53.356;-1.464;2023-02-03T05:46:00;6.95;;;5.18;;
29838;SDS011;18669;53.356;-1.464;2023-02-03T05:48:27;6.30;;;5.70;;
29838;SDS011;18669;53.356;-1.464;2023-02-03T05:50:54;7.22;;;5.97;;
29838;SDS011;18669;53.356;-1.464;2023-02-03T05:55:46;10.45;;;5.90;;
29838;SDS011;18669;53.356;-1.464;2023-02-03T06:00:38;7.50;;;6.38;;
29838;SDS011;18669;53.356;-1.464;2023-02-03T06:03:04;7.95;;;6.72;;
29838;SDS011;18669;53.356;-1.464;2023-02-03T06:07:57;8.52;;;7.63;;
29838;SDS011;18669;53.356;-1.464;2023-02-03T06:10:23;9.82;;;7.55;;
29838;SDS011;18669;53.356;-1.464;2023-02-03T06:12:50;9.38;;;8.27;;
29838;SDS011;18669;53.356;-1.464;2023-02-03T06:15:16;12.45;;;9.23;;
29838;SDS011;18669;53.356;-1.464;2023-02-03T06:17:46;13.77;;;9.63;;
29838;SDS011;18669;53.356;-1.464;2023-02-03T06:20:14;10.68;;;9.68;;
29838;SDS011;18669;53.356;-1.464;2023-02-03T06:22:42;10.10;;;9.13;;
29838;SDS011;18669;53.356;-1.464;2023-02-03T06:25:08;10.77;;;8.70;;
29838;SDS011;18669;53.356;-1.464;2023-02-03T06:27:35;9.73;;;8.73;;
29838;SDS011;18669;53.356;-1.464;2023-02-03T06:30:02;12.77;;;7.72;;
29838;SDS011;18669;53.356;-1.464;2023-02-03T06:32:29;12.38;;;8.00;;
29838;SDS011;18669;53.356;-1.464;2023-02-03T06:34:55;8.07;;;7.28;;
29838;SDS011;18669;53.356;-1.464;2023-02-03T06:37:21;12.40;;;8.27;;
29838;SDS011;18669;53.356;-1.464;2023-02-03T06:39:47;12.50;;;7.85;;
29838;SDS011;18669;53.356;-1.464;2023-02-03T06:44:39;9.98;;;7.93;;
29838;SDS011;18669;53.356;-1.464;2023-02-03T06:47:05;11.32;;;8.43;;
29838;SDS011;18669;53.356;-1.464;2023-02-03T06:51:57;10.25;;;8.27;;
29838;SDS011;18669;53.356;-1.464;2023-02-03T06:56:49;7.70;;;6.85;;
29838;SDS011;18669;53.356;-1.464;2023-02-03T06:59:15;9.80;;;6.28;;
29838;SDS011;18669;53.356;-1.464;2023-02-03T07:04:07;11.65;;;7.25;;
29838;SDS011;18669;53.356;-1.464;2023-02-03T07:06:33;12.40;;;8.43;;
29838;SDS011;18669;53.356;-1.464;2023-02-03T07:11:26;11.63;;;9.65;;
29838;SDS011;18669;53.356;-1.464;2023-02-03T07:13:53;11.90;;;9.57;;
29838;SDS011;18669;53.356;-1.464;2023-02-03T07:16:23;13.25;;;10.15;;
29838;SDS011;18669;53.356;-1.464;2023-02-03T07:18:49;12.32;;;10.18;;
29838;SDS011;18669;53.356;-1.464;2023-02-03T07:21:16;12.18;;;9.90;;
29838;SDS011;18669;53.356;-1.464;2023-02-03T07:23:42;14.10;;;9.70;;
29838;SDS011;18669;53.356;-1.464;2023-02-03T07:26:08;13.13;;;9.27;;
29838;SDS011;18669;53.356;-1.464;2023-02-03T07:28:35;9.15;;;7.90;;
29838;SDS011;18669;53.356;-1.464;2023-02-03T07:31:01;10.93;;;6.82;;
29838;SDS011;18669;53.356;-1.464;2023-02-03T07:33:35;8.43;;;6.82;;
29838;SDS011;18669;53.356;-1.464;2023-02-03T07:36:01;6.80;;;5.88;;
29838;SDS011;18669;53.356;-1.464;2023-02-03T07:38:28;6.15;;;5.47;;
29838;SDS011;18669;53.356;-1.464;2023-02-03T07:40:55;6.55;;;5.88;;
29838;SDS011;18669;53.356;-1.464;2023-02-03T07:43:21;6.88;;;5.13;;
29838;SDS011;18669;53.356;-1.464;2023-02-03T07:45:49;7.57;;;6.20;;
29838;SDS011;18669;53.356;-1.464;2023-02-03T07:48:15;6.72;;;5.72;;
29838;SDS011;18669;53.356;-1.464;2023-02-03T07:50:41;7.95;;;6.65;;
29838;SDS011;18669;53.356;-1.464;2023-02-03T07:53:07;10.25;;;6.50;;
29838;SDS011;18669;53.356;-1.464;2023-02-03T07:55:36;6.25;;;5.65;;
29838;SDS011;18669;53.356;-1.464;2023-02-03T07:58:03;6.95;;;6.25;;
29838;SDS011;18669;53.356;-1.464;2023-02-03T08:00:29;7.05;;;6.35;;
29838;SDS011;18669;53.356;-1.464;2023-02-03T08:02:56;7.47;;;6.60;;
29838;SDS011;18669;53.356;-1.464;2023-02-03T08:07:48;17.67;;;8.38;;
29838;SDS011;18669;53.356;-1.464;2023-02-03T08:10:14;8.35;;;6.93;;
29838;SDS011;18669;53.356;-1.464;2023-02-03T08:12:40;10.32;;;7.85;;
29838;SDS011;18669;53.356;-1.464;2023-02-03T08:15:07;11.82;;;9.00;;
29838;SDS011;18669;53.356;-1.464;2023-02-03T08:17:34;10.10;;;9.13;;
29838;SDS011;18669;53.356;-1.464;2023-02-03T08:20:00;8.68;;;7.78;;
29838;SDS011;18669;53.356;-1.464;2023-02-03T08:24:53;9.07;;;8.00;;
29838;SDS011;18669;53.356;-1.464;2023-02-03T08:29:46;7.47;;;6.75;;
29838;SDS011;18669;53.356;-1.464;2023-02-03T08:32:13;8.25;;;7.45;;
29838;SDS011;18669;53.356;-1.464;2023-02-03T08:34:41;6.78;;;5.97;;
29838;SDS011;18669;53.356;-1.464;2023-02-03T08:37:08;6.28;;;5.30;;
29838;SDS011;18669;53.356;-1.464;2023-02-03T08:39:36;6.18;;;4.50;;
29838;SDS011;18669;53.356;-1.464;2023-02-03T08:42:02;5.22;;;3.33;;
29838;SDS011;18669;53.356;-1.464;2023-02-03T08:44:29;6.20;;;2.45;;
29838;SDS011;18669;53.356;-1.464;2023-02-03T08:46:56;3.60;;;2.38;;
29838;SDS011;18669;53.356;-1.464;2023-02-03T08:49:24;4.10;;;3.13;;
29838;SDS011;18669;53.356;-1.464;2023-02-03T08:51:51;2.65;;;2.00;;
29838;SDS011;18669;53.356;-1.464;2023-02-03T08:56:43;2.95;;;1.80;;
29838;SDS011;18669;53.356;-1.464;2023-02-03T08:59:10;2.00;;;1.80;;
29838;SDS011;18669;53.356;-1.464;2023-02-03T09:01:36;2.13;;;1.83;;
29838;SDS011;18669;53.356;-1.464;2023-02-03T09:04:05;1.88;;;1.45;;
29838;SDS011;18669;53.356;-1.464;2023-02-03T09:06:34;1.50;;;1.40;;
29838;SDS011;18669;53.356;-1.464;2023-02-03T09:09:00;1.48;;;1.38;;
29838;SDS011;18669;53.356;-1.464;2023-02-03T09:11:26;19.05;;;2.58;;
29838;SDS011;18669;53.356;-1.464;2023-02-03T09:16:19;2.42;;;1.35;;
29838;SDS011;18669;53.356;-1.464;2023-02-03T09:18:48;2.25;;;1.30;;
29838;SDS011;18669;53.356;-1.464;2023-02-03T09:21:14;1.02;;;0.93;;
29838;SDS011;18669;53.356;-1.464;2023-02-03T09:23:41;2.65;;;2.03;;
29838;SDS011;18669;53.356;-1.464;2023-02-03T09:26:10;2.03;;;1.38;;
29838;SDS011;18669;53.356;-1.464;2023-02-03T09:28:39;2.25;;;1.10;;
29838;SDS011;18669;53.356;-1.464;2023-02-03T09:31:07;1.98;;;1.00;;
29838;SDS011;18669;53.356;-1.464;2023-02-03T09:33:34;1.95;;;0.93;;
29838;SDS011;18669;53.356;-1.464;2023-02-03T09:36:01;1.00;;;0.90;;
29838;SDS011;18669;53.356;-1.464;2023-02-03T09:38:27;1.05;;;0.80;;
29838;SDS011;18669;53.356;-1.464;2023-02-03T09:46:22;1.95;;;0.88;;
29838;SDS011;18669;53.356;-1.464;2023-02-03T09:48:55;1.05;;;0.60;;
29838;SDS011;18669;53.356;-1.464;2023-02-03T09:51:31;0.77;;;0.75;;
29838;SDS011;18669;53.356;-1.464;2023-02-03T09:54:19;3.85;;;1.88;;
29838;SDS011;18669;53.356;-1.464;2023-02-03T09:56:51;1.83;;;1.48;;
29838;SDS011;18669;53.356;-1.464;2023-02-03T09:59:22;2.47;;;1.90;;
29838;SDS011;18669;53.356;-1.464;2023-02-03T10:16:46;1.60;;;1.10;;
29838;SDS011;18669;53.356;-1.464;2023-02-03T10:19:26;1.60;;;1.30;;
29838;SDS011;18669;53.356;-1.464;2023-02-03T10:27:50;2.07;;;1.43;;
29838;SDS011;18669;53.356;-1.464;2023-02-03T10:30:25;1.20;;;1.10;;
29838;SDS011;18669;53.356;-1.464;2023-02-03T10:33:09;33.60;;;3.08;;
29838;SDS011;18669;53.356;-1.464;2023-02-03T10:35:44;2.60;;;1.67;;
29838;SDS011;18669;53.356;-1.464;2023-02-03T10:38:13;1.80;;;1.60;;
29838;SDS011;18669;53.356;-1.464;2023-02-03T10:41:14;2.75;;;1.17;;
29838;SDS011;18669;53.356;-1.464;2023-02-03T10:44:06;1.63;;;1.35;;
29838;SDS011;18669;53.356;-1.464;2023-02-03T10:47:09;7.97;;;1.40;;
29838;SDS011;18669;53.356;-1.464;2023-02-03T10:50:19;4.35;;;1.20;;
29838;SDS011;18669;53.356;-1.464;2023-02-03T10:53:19;1.40;;;1.30;;
29838;SDS011;18669;53.356;-1.464;2023-02-03T10:56:15;1.88;;;1.38;;
29838;SDS011;18669;53.356;-1.464;2023-02-03T10:59:21;3.33;;;1.52;;
29838;SDS011;18669;53.356;-1.464;2023-02-03T11:02:36;5.20;;;3.15;;
29838;SDS011;18669;53.356;-1.464;2023-02-03T11:05:27;2.50;;;1.63;;
29838;SDS011;18669;53.356;-1.464;2023-02-03T11:08:23;2.20;;;2.00;;
29838;SDS011;18669;53.356;-1.464;2023-02-03T11:11:29;1.50;;;1.40;;
29838;SDS011;18669;53.356;-1.464;2023-02-03T11:16:27;1.55;;;1.00;;
29838;SDS011;18669;53.356;-1.464;2023-02-03T11:19:02;1.45;;;1.00;;
29838;SDS011;18669;53.356;-1.464;2023-02-03T11:21:32;1.10;;;1.00;;
29838;SDS011;18669;53.356;-1.464;2023-02-03T11:26:48;1.58;;;1.30;;
29838;SDS011;18669;53.356;-1.464;2023-02-03T11:29:24;1.10;;;1.00;;
29838;SDS011;18669;53.356;-1.464;2023-02-03T11:34:33;3.42;;;0.90;;
29838;SDS011;18669;53.356;-1.464;2023-02-03T11:39:54;1.40;;;1.30;;
29838;SDS011;18669;53.356;-1.464;2023-02-03T11:42:21;0.70;;;0.50;;
29838;SDS011;18669;53.356;-1.464;2023-02-03T11:44:49;0.57;;;0.57;;
29838;SDS011;18669;53.356;-1.464;2023-02-03T11:47:15;1.83;;;0.45;;
29838;SDS011;18669;53.356;-1.464;2023-02-03T11:52:34;1.15;;;0.88;;
29838;SDS011;18669;53.356;-1.464;2023-02-03T12:00:56;1.73;;;1.20;;
29838;SDS011;18669;53.356;-1.464;2023-02-03T12:23:15;0.30;;;0.30;;
29838;SDS011;18669;53.356;-1.464;2023-02-03T12:25:47;0.32;;;0.32;;
29838;SDS011;18669;53.356;-1.464;2023-02-03T12:31:09;2.40;;;0.30;;
29838;SDS011;18669;53.356;-1.464;2023-02-03T12:33:45;1.17;;;0.40;;
29838;SDS011;18669;53.356;-1.464;2023-02-03T12:36:26;1.75;;;0.50;;
29838;SDS011;18669;53.356;-1.464;2023-02-03T12:39:40;0.43;;;0.40;;
29838;SDS011;18669;53.356;-1.464;2023-02-03T12:41:54;2.55;;;0.80;;
29838;SDS011;18669;53.356;-1.464;2023-02-03T12:44:29;0.80;;;0.30;;
29838;SDS011;18669;53.356;-1.464;2023-02-03T12:47:05;4.10;;;1.08;;
29838;SDS011;18669;53.356;-1.464;2023-02-03T12:49:40;1.05;;;0.40;;
29838;SDS011;18669;53.356;-1.464;2023-02-03T12:57:34;0.90;;;0.50;;
29838;SDS011;18669;53.356;-1.464;2023-02-03T13:00:11;0.40;;;0.40;;
29838;SDS011;18669;53.356;-1.464;2023-02-03T13:08:31;2.28;;;1.25;;
29838;SDS011;18669;53.356;-1.464;2023-02-03T13:16:37;1.20;;;0.50;;
29838;SDS011;18669;53.356;-1.464;2023-02-03T13:19:10;1.08;;;0.60;;
29838;SDS011;18669;53.356;-1.464;2023-02-03T13:21:43;1.58;;;0.65;;
29838;SDS011;18669;53.356;-1.464;2023-02-03T13:24:11;0.75;;;0.65;;
29838;SDS011;18669;53.356;-1.464;2023-02-03T13:29:25;0.70;;;0.70;;
29838;SDS011;18669;53.356;-1.464;2023-02-03T13:32:05;3.00;;;0.70;;
29838;SDS011;18669;53.356;-1.464;2023-02-03T13:37:45;1.30;;;0.60;;
29838;SDS011;18669;53.356;-1.464;2023-02-03T13:43:02;1.45;;;0.73;;
29838;SDS011;18669;53.356;-1.464;2023-02-03T13:45:41;2.90;;;0.75;;
29838;SDS011;18669;53.356;-1.464;2023-02-03T13:48:14;1.35;;;1.10;;
29838;SDS011;18669;53.356;-1.464;2023-02-03T13:50:46;0.80;;;0.50;;
29838;SDS011;18669;53.356;-1.464;2023-02-03T13:53:23;1.90;;;1.40;;
29838;SDS011;18669;53.356;-1.464;2023-02-03T13:55:58;0.40;;;0.40;;
29838;SDS011;18669;53.356;-1.464;2023-02-03T13:58:29;1.42;;;1.33;;
29838;SDS011;18669;53.356;-1.464;2023-02-03T14:00:58;2.45;;;0.88;;
29838;SDS011;18669;53.356;-1.464;2023-02-03T14:13:34;4.43;;;2.97;;
29838;SDS011;18669;53.356;-1.464;2023-02-03T14:18:43;1.67;;;1.08;;
29838;SDS011;18669;53.356;-1.464;2023-02-03T14:21:15;1.42;;;1.05;;
29838;SDS011;18669;53.356;-1.464;2023-02-03T14:23:45;1.65;;;1.00;;
29838;SDS011;18669;53.356;-1.464;2023-02-03T14:26:16;3.85;;;1.10;;
29838;SDS011;18669;53.356;-1.464;2023-02-03T14:28:48;1.05;;;0.60;;
29838;SDS011;18669;53.356;-1.464;2023-02-03T14:31:22;0.88;;;0.60;;
29838;SDS011;18669;53.356;-1.464;2023-02-03T14:33:54;1.20;;;0.80;;
29838;SDS011;18669;53.356;-1.464;2023-02-03T14:38:50;1.65;;;0.90;;
29838;SDS011;18669;53.356;-1.464;2023-02-03T14:41:27;3.08;;;0.90;;
29838;SDS011;18669;53.356;-1.464;2023-02-03T14:47:08;3.58;;;0.98;;
29838;SDS011;18669;53.356;-1.464;2023-02-03T14:55:38;2.25;;;0.82;;
29838;SDS011;18669;53.356;-1.464;2023-02-03T14:58:27;1.15;;;0.70;;
29838;SDS011;18669;53.356;-1.464;2023-02-03T15:00:59;1.23;;;0.80;;
29838;SDS011;18669;53.356;-1.464;2023-02-03T15:03:32;4.40;;;0.88;;
29838;SDS011;18669;53.356;-1.464;2023-02-03T15:06:01;0.73;;;0.70;;
29838;SDS011;18669;53.356;-1.464;2023-02-03T15:11:20;3.45;;;1.42;;
29838;SDS011;18669;53.356;-1.464;2023-02-03T15:13:52;5.75;;;4.22;;
29838;SDS011;18669;53.356;-1.464;2023-02-03T15:16:20;5.75;;;2.25;;
29838;SDS011;18669;53.356;-1.464;2023-02-03T15:18:52;1.65;;;0.90;;
29838;SDS011;18669;53.356;-1.464;2023-02-03T15:21:21;7.18;;;1.90;;
29838;SDS011;18669;53.356;-1.464;2023-02-03T15:23:55;3.28;;;1.83;;
29838;SDS011;18669;53.356;-1.464;2023-02-03T15:26:23;1.38;;;1.13;;
29838;SDS011;18669;53.356;-1.464;2023-02-03T15:29:02;2.83;;;0.98;;
29838;SDS011;18669;53.356;-1.464;2023-02-03T15:34:05;2.35;;;0.98;;
29838;SDS011;18669;53.356;-1.464;2023-02-03T15:36:45;3.35;;;1.00;;
29838;SDS011;18669;53.356;-1.464;2023-02-03T15:39:32;4.35;;;2.00;;
29838;SDS011;18669;53.356;-1.464;2023-02-03T15:42:27;4.53;;;1.10;;
29838;SDS011;18669;53.356;-1.464;2023-02-03T15:47:58;2.70;;;1.20;;
29838;SDS011;18669;53.356;-1.464;2023-02-03T15:56:21;2.67;;;1.02;;
29838;SDS011;18669;53.356;-1.464;2023-02-03T15:59:23;1.77;;;0.90;;
29838;SDS011;18669;53.356;-1.464;2023-02-03T16:01:50;3.67;;;0.93;;
29838;SDS011;18669;53.356;-1.464;2023-02-03T16:04:17;4.88;;;1.10;;
29838;SDS011;18669;53.356;-1.464;2023-02-03T16:06:51;4.18;;;0.90;;
29838;SDS011;18669;53.356;-1.464;2023-02-03T16:09:33;3.65;;;1.40;;
29838;SDS011;18669;53.356;-1.464;2023-02-03T16:12:11;4.35;;;1.70;;
29838;SDS011;18669;53.356;-1.464;2023-02-03T16:14:54;4.82;;;2.25;;
29838;SDS011;18669;53.356;-1.464;2023-02-03T16:17:36;7.88;;;4.28;;
29838;SDS011;18669;53.356;-1.464;2023-02-03T16:22:40;4.85;;;1.75;;
29838;SDS011;18669;53.356;-1.464;2023-02-03T16:25:23;3.78;;;1.25;;
29838;SDS011;18669;53.356;-1.464;2023-02-03T16:28:13;5.18;;;1.90;;
29838;SDS011;18669;53.356;-1.464;2023-02-03T16:31:01;6.32;;;1.60;;
29838;SDS011;18669;53.356;-1.464;2023-02-03T16:34:01;7.13;;;1.88;;
29838;SDS011;18669;53.356;-1.464;2023-02-03T16:36:56;10.00;;;2.25;;
29838;SDS011;18669;53.356;-1.464;2023-02-03T16:39:41;4.68;;;2.22;;
29838;SDS011;18669;53.356;-1.464;2023-02-03T16:42:40;7.88;;;2.08;;
29838;SDS011;18669;53.356;-1.464;2023-02-03T16:45:27;7.40;;;1.80;;
29838;SDS011;18669;53.356;-1.464;2023-02-03T16:48:12;5.68;;;1.73;;
29838;SDS011;18669;53.356;-1.464;2023-02-03T16:51:01;9.25;;;2.35;;
29838;SDS011;18669;53.356;-1.464;2023-02-03T16:53:41;8.65;;;2.03;;
29838;SDS011;18669;53.356;-1.464;2023-02-03T16:56:09;6.25;;;2.42;;
29838;SDS011;18669;53.356;-1.464;2023-02-03T16:58:35;7.65;;;2.03;;
29838;SDS011;18669;53.356;-1.464;2023-02-03T17:05:55;6.00;;;2.50;;
29838;SDS011;18669;53.356;-1.464;2023-02-03T17:08:23;6.88;;;3.33;;
29838;SDS011;18669;53.356;-1.464;2023-02-03T17:10:50;8.93;;;3.53;;
29838;SDS011;18669;53.356;-1.464;2023-02-03T17:13:20;16.58;;;3.10;;
29838;SDS011;18669;53.356;-1.464;2023-02-03T17:15:48;11.93;;;3.20;;
29838;SDS011;18669;53.356;-1.464;2023-02-03T17:18:17;11.50;;;3.10;;
29838;SDS011;18669;53.356;-1.464;2023-02-03T17:20:43;11.65;;;3.00;;
29838;SDS011;18669;53.356;-1.464;2023-02-03T17:23:10;9.95;;;2.50;;
29838;SDS011;18669;53.356;-1.464;2023-02-03T17:25:37;11.40;;;3.92;;
29838;SDS011;18669;53.356;-1.464;2023-02-03T17:28:04;19.60;;;5.85;;
29838;SDS011;18669;53.356;-1.464;2023-02-03T17:30:32;9.13;;;2.25;;
29838;SDS011;18669;53.356;-1.464;2023-02-03T17:33:00;10.18;;;2.60;;
29838;SDS011;18669;53.356;-1.464;2023-02-03T17:35:27;10.18;;;2.90;;
29838;SDS011;18669;53.356;-1.464;2023-02-03T17:40:19;6.03;;;2.13;;
29838;SDS011;18669;53.356;-1.464;2023-02-03T17:42:45;7.65;;;2.50;;
29838;SDS011;18669;53.356;-1.464;2023-02-03T17:47:37;8.15;;;2.75;;
29838;SDS011;18669;53.356;-1.464;2023-02-03T17:52:29;13.32;;;4.47;;
29838;SDS011;18669;53.356;-1.464;2023-02-03T17:57:21;11.55;;;2.85;;
29838;SDS011;18669;53.356;-1.464;2023-02-03T18:02:12;9.45;;;3.00;;
29838;SDS011;18669;53.356;-1.464;2023-02-03T18:04:38;9.68;;;3.53;;
29838;SDS011;18669;53.356;-1.464;2023-02-03T18:07:06;19.85;;;5.90;;
29838;SDS011;18669;53.356;-1.464;2023-02-03T18:11:58;23.58;;;9.20;;
29838;SDS011;18669;53.356;-1.464;2023-02-03T18:16:50;9.75;;;3.47;;
29838;SDS011;18669;53.356;-1.464;2023-02-03T18:19:16;7.05;;;2.40;;
29838;SDS011;18669;53.356;-1.464;2023-02-03T18:24:09;11.07;;;2.65;;
29838;SDS011;18669;53.356;-1.464;2023-02-03T18:26:43;13.30;;;3.75;;
29838;SDS011;18669;53.356;-1.464;2023-02-03T18:29:14;5.65;;;2.45;;
29838;SDS011;18669;53.356;-1.464;2023-02-03T18:31:41;9.23;;;2.67;;
29838;SDS011;18669;53.356;-1.464;2023-02-03T18:34:08;5.80;;;2.42;;
29838;SDS011;18669;53.356;-1.464;2023-02-03T18:39:00;14.50;;;5.22;;
29838;SDS011;18669;53.356;-1.464;2023-02-03T18:41:26;13.40;;;5.13;;
29838;SDS011;18669;53.356;-1.464;2023-02-03T18:43:53;11.98;;;4.93;;
29838;SDS011;18669;53.356;-1.464;2023-02-03T18:48:46;8.63;;;3.90;;
29838;SDS011;18669;53.356;-1.464;2023-02-03T18:51:13;9.20;;;4.03;;
29838;SDS011;18669;53.356;-1.464;2023-02-03T18:53:41;11.75;;;4.28;;
29838;SDS011;18669;53.356;-1.464;2023-02-03T18:56:14;7.22;;;3.03;;
29838;SDS011;18669;53.356;-1.464;2023-02-03T18:58:41;8.45;;;2.85;;
29838;SDS011;18669;53.356;-1.464;2023-02-03T19:01:08;5.10;;;2.67;;
29838;SDS011;18669;53.356;-1.464;2023-02-03T19:03:34;5.38;;;2.40;;
29838;SDS011;18669;53.356;-1.464;2023-02-03T19:06:00;8.02;;;2.88;;
29838;SDS011;18669;53.356;-1.464;2023-02-03T19:10:53;9.98;;;3.10;;
29838;SDS011;18669;53.356;-1.464;2023-02-03T19:13:19;7.72;;;3.05;;
29838;SDS011;18669;53.356;-1.464;2023-02-03T19:15:46;10.10;;;3.70;;
29838;SDS011;18669;53.356;-1.464;2023-02-03T19:18:13;8.23;;;2.72;;
29838;SDS011;18669;53.356;-1.464;2023-02-03T19:20:41;8.80;;;3.35;;
29838;SDS011;18669;53.356;-1.464;2023-02-03T19:23:08;8.52;;;3.00;;
29838;SDS011;18669;53.356;-1.464;2023-02-03T19:25:35;13.23;;;7.30;;
29838;SDS011;18669;53.356;-1.464;2023-02-03T19:28:02;10.30;;;4.45;;
29838;SDS011;18669;53.356;-1.464;2023-02-03T19:30:29;9.05;;;4.22;;
29838;SDS011;18669;53.356;-1.464;2023-02-03T19:32:56;9.43;;;3.50;;
29838;SDS011;18669;53.356;-1.464;2023-02-03T19:35:22;8.23;;;2.35;;
29838;SDS011;18669;53.356;-1.464;2023-02-03T19:37:49;7.85;;;3.10;;
29838;SDS011;18669;53.356;-1.464;2023-02-03T19:40:15;7.32;;;2.30;;
29838;SDS011;18669;53.356;-1.464;2023-02-03T19:42:42;7.47;;;3.40;;
29838;SDS011;18669;53.356;-1.464;2023-02-03T19:47:33;5.22;;;2.38;;
29838;SDS011;18669;53.356;-1.464;2023-02-03T19:49:59;6.65;;;3.13;;
29838;SDS011;18669;53.356;-1.464;2023-02-03T19:54:51;7.20;;;2.20;;